Time;durP1;ratioP1;P1;durP2;ratioP2;P2;SDS_P1;SDS_P2;PMS_P1;PMS_P2;Temp;Humidity;BMP_temperature;BMP_pressure;BME280_temperature;BME280_humidity;BME280_pressure;Samples;Min_cycle;Max_cycle;Signal;HPM_P1;HPM_P2
2021/08/20 00:00:27;;;;;;;1.92;0.93;;;;;;;;;;5087260;28;20052;-58
2021/08/20 00:02:54;;;;;;;2.08;1.00;;;;;;;;;;5091380;28;20126;-57
2021/08/20 00:05:21;;;;;;;2.63;1.05;;;;;;;;;;5092089;28;20024;-58
2021/08/20 00:07:48;;;;;;;2.28;1.13;;;;;;;;;;5092300;28;20028;-58
2021/08/20 00:10:16;;;;;;;3.97;1.30;;;;;;;;;;5091518;28;20012;-58
2021/08/20 00:12:43;;;;;;;2.38;0.75;;;;;;;;;;5092143;28;20028;-58
2021/08/20 00:15:10;;;;;;;1.98;1.20;;;;;;;;;;5087575;28;20360;-58
2021/08/20 00:17:37;;;;;;;2.88;1.33;;;;;;;;;;5089666;28;20089;-59
2021/08/20 00:20:04;;;;;;;3.80;1.60;;;;;;;;;;5107467;28;20099;-57
2021/08/20 00:22:31;;;;;;;4.25;2.00;;;;;;;;;;5107121;28;20028;-57
2021/08/20 00:24:58;;;;;;;12.75;2.78;;;;;;;;;;5091395;28;20073;-57
2021/08/20 00:27:24;;;;;;;2.83;1.60;;;;;;;;;;5079645;28;20374;-57
2021/08/20 00:29:51;;;;;;;5.37;1.40;;;;;;;;;;5112401;28;20093;-57
2021/08/20 00:32:18;;;;;;;8.17;1.40;;;;;;;;;;5112217;28;20027;-57
2021/08/20 00:34:45;;;;;;;3.33;2.00;;;;;;;;;;5112091;28;20084;-58
2021/08/20 00:37:11;;;;;;;5.87;1.90;;;;;;;;;;5108983;28;20110;-57
2021/08/20 00:39:39;;;;;;;9.23;1.63;;;;;;;;;;5103593;28;20144;-57
2021/08/20 00:42:09;;;;;;;4.57;1.87;;;;;;;;;;5086825;28;20035;-57
2021/08/20 00:44:36;;;;;;;5.30;2.07;;;;;;;;;;5086355;28;20024;-57
2021/08/20 00:47:03;;;;;;;5.30;1.87;;;;;;;;;;5089486;28;20024;-58
2021/08/20 00:49:30;;;;;;;7.53;2.40;;;;;;;;;;5091840;28;20076;-57
2021/08/20 00:51:56;;;;;;;7.27;2.17;;;;;;;;;;5096820;28;20028;-58
2021/08/20 00:54:23;;;;;;;5.77;2.50;;;;;;;;;;5112138;28;20034;-58
2021/08/20 00:56:50;;;;;;;6.23;2.40;;;;;;;;;;5112025;28;20032;-57
2021/08/20 00:59:17;;;;;;;8.57;3.17;;;;;;;;;;5093071;28;20552;-57
2021/08/20 01:01:44;;;;;;;3.50;2.13;;;;;;;;;;5107510;28;20513;-57
2021/08/20 01:04:12;;;;;;;5.70;1.93;;;;;;;;;;5110669;28;20023;-57
2021/08/20 01:06:40;;;;;;;3.43;1.80;;;;;;;;;;5110756;28;20409;-58
2021/08/20 01:09:07;;;;;;;5.67;1.43;;;;;;;;;;5098769;28;20036;-58
2021/08/20 01:11:34;;;;;;;4.10;2.13;;;;;;;;;;5095190;28;20027;-57
2021/08/20 01:14:01;;;;;;;3.70;1.83;;;;;;;;;;5095081;28;20039;-57
2021/08/20 01:16:28;;;;;;;4.67;2.50;;;;;;;;;;5095157;28;20470;-57
2021/08/20 01:18:54;;;;;;;8.60;2.10;;;;;;;;;;5094517;28;20073;-57
2021/08/20 01:21:23;;;;;;;3.93;1.87;;;;;;;;;;5106978;28;20114;-58
2021/08/20 01:23:50;;;;;;;4.37;2.27;;;;;;;;;;5110314;28;20630;-57
2021/08/20 01:26:16;;;;;;;12.73;3.27;;;;;;;;;;5095870;28;20030;-57
2021/08/20 01:28:43;;;;;;;7.87;2.60;;;;;;;;;;5097545;28;20097;-58
2021/08/20 01:31:11;;;;;;;4.60;1.73;;;;;;;;;;5111459;28;20016;-57
2021/08/20 01:33:38;;;;;;;3.27;1.60;;;;;;;;;;5115066;28;20027;-57
2021/08/20 01:36:08;;;;;;;2.90;1.40;;;;;;;;;;5114643;28;20113;-57
2021/08/20 01:38:43;;;;;;;3.43;1.50;;;;;;;;;;5108012;28;20101;-58
2021/08/20 01:41:12;;;;;;;3.47;1.90;;;;;;;;;;5107611;28;20038;-57
2021/08/20 01:43:42;;;;;;;9.73;2.87;;;;;;;;;;5112346;28;20107;-56
2021/08/20 01:46:10;;;;;;;5.03;2.53;;;;;;;;;;5109828;28;20022;-57
2021/08/20 01:48:49;;;;;;;8.30;2.33;;;;;;;;;;5109724;28;20098;-57
2021/08/20 01:51:26;;;;;;;8.60;1.93;;;;;;;;;;5096533;28;20020;-57
2021/08/20 01:54:02;;;;;;;10.87;2.53;;;;;;;;;;5091450;28;20024;-56
2021/08/20 01:56:37;;;;;;;10.83;2.07;;;;;;;;;;5094006;28;20024;-56
2021/08/20 01:59:09;;;;;;;6.33;2.27;;;;;;;;;;5093604;28;20026;-57
2021/08/20 02:01:40;;;;;;;6.07;2.47;;;;;;;;;;5092157;28;20043;-57
2021/08/20 02:04:11;;;;;;;3.13;1.83;;;;;;;;;;5073849;28;20062;-57
2021/08/20 02:06:42;;;;;;;3.00;1.70;;;;;;;;;;5070402;28;20048;-57
2021/08/20 02:09:08;;;;;;;4.43;1.80;;;;;;;;;;5068518;28;20479;-57
2021/08/20 02:11:37;;;;;;;5.27;1.87;;;;;;;;;;5068296;28;20466;-57
2021/08/20 02:14:04;;;;;;;7.03;2.33;;;;;;;;;;5084290;28;20078;-57
2021/08/20 02:16:31;;;;;;;13.47;2.40;;;;;;;;;;5091672;28;20028;-57
2021/08/20 02:18:58;;;;;;;9.70;2.20;;;;;;;;;;5093580;28;20028;-57
2021/08/20 02:21:30;;;;;;;4.07;2.13;;;;;;;;;;5093716;28;20102;-57
2021/08/20 02:23:59;;;;;;;6.07;2.07;;;;;;;;;;5105807;28;20024;-57
2021/08/20 02:26:30;;;;;;;4.47;1.70;;;;;;;;;;5097984;28;20486;-57
2021/08/20 02:28:58;;;;;;;7.47;1.93;;;;;;;;;;5103002;28;20028;-57
2021/08/20 02:31:26;;;;;;;6.20;1.80;;;;;;;;;;5108789;28;20110;-56
2021/08/20 02:33:54;;;;;;;5.53;1.90;;;;;;;;;;5108845;28;20107;-57
2021/08/20 02:36:24;;;;;;;7.07;1.83;;;;;;;;;;5108996;28;20016;-57
2021/08/20 02:38:51;;;;;;;6.30;1.93;;;;;;;;;;5099713;28;20052;-57
2021/08/20 02:41:19;;;;;;;10.93;3.67;;;;;;;;;;5095221;28;20122;-56
2021/08/20 02:43:49;;;;;;;6.57;2.10;;;;;;;;;;5101428;28;20028;-57
2021/08/20 02:46:16;;;;;;;4.23;2.00;;;;;;;;;;5093151;28;20020;-57
2021/08/20 02:48:42;;;;;;;2.30;1.53;;;;;;;;;;5093343;28;20016;-57
2021/08/20 02:51:10;;;;;;;9.20;1.70;;;;;;;;;;5090166;28;20565;-57
2021/08/20 02:53:36;;;;;;;5.13;2.00;;;;;;;;;;5089140;28;20024;-57
2021/08/20 02:56:03;;;;;;;9.63;2.30;;;;;;;;;;5088315;28;20547;-57
2021/08/20 02:58:30;;;;;;;4.33;1.47;;;;;;;;;;5087700;28;20046;-57
2021/08/20 03:00:57;;;;;;;6.23;1.47;;;;;;;;;;5090336;28;20352;-57
2021/08/20 03:03:23;;;;;;;5.13;1.83;;;;;;;;;;5110468;28;20477;-57
2021/08/20 03:05:50;;;;;;;3.47;1.27;;;;;;;;;;5113083;28;20166;-57
2021/08/20 03:08:17;;;;;;;4.13;1.53;;;;;;;;;;5102181;28;20028;-56
2021/08/20 03:10:44;;;;;;;3.63;1.60;;;;;;;;;;5092704;28;20030;-56
2021/08/20 03:13:11;;;;;;;4.07;1.50;;;;;;;;;;5090786;28;20366;-56
2021/08/20 03:15:38;;;;;;;3.30;1.33;;;;;;;;;;5087531;28;20024;-57
2021/08/20 03:18:05;;;;;;;5.07;1.57;;;;;;;;;;5088650;28;20028;-57
2021/08/20 03:20:31;;;;;;;3.83;1.40;;;;;;;;;;5087684;28;20089;-56
2021/08/20 03:22:58;;;;;;;5.43;1.60;;;;;;;;;;5089480;28;20016;-56
2021/08/20 03:25:25;;;;;;;2.90;1.50;;;;;;;;;;5092177;28;20028;-56
2021/08/20 03:27:52;;;;;;;3.73;1.67;;;;;;;;;;5092683;28;20030;-57
2021/08/20 03:30:18;;;;;;;2.73;1.30;;;;;;;;;;5092721;28;20020;-56
2021/08/20 03:32:45;;;;;;;2.57;1.30;;;;;;;;;;5092098;28;20034;-56
2021/08/20 03:35:14;;;;;;;4.40;1.47;;;;;;;;;;5090628;28;20016;-57
2021/08/20 03:37:41;;;;;;;2.33;1.13;;;;;;;;;;5087200;28;20572;-57
2021/08/20 03:40:09;;;;;;;5.60;1.67;;;;;;;;;;5103394;28;20035;-57
2021/08/20 03:42:36;;;;;;;3.40;1.00;;;;;;;;;;5105959;28;20382;-56
2021/08/20 03:45:02;;;;;;;4.77;1.33;;;;;;;;;;5108681;28;20398;-56
2021/08/20 03:47:29;;;;;;;3.13;1.27;;;;;;;;;;5112580;28;20096;-56
2021/08/20 03:49:56;;;;;;;3.20;1.40;;;;;;;;;;5112423;28;20034;-56
2021/08/20 03:52:23;;;;;;;2.43;1.10;;;;;;;;;;5112582;28;20038;-57
2021/08/20 03:54:49;;;;;;;8.80;1.40;;;;;;;;;;5111652;28;20387;-56
2021/08/20 03:57:16;;;;;;;3.13;1.20;;;;;;;;;;5111334;28;20074;-56
2021/08/20 03:59:43;;;;;;;1.50;0.90;;;;;;;;;;5107462;28;20035;-56
2021/08/20 04:02:10;;;;;;;4.20;1.67;;;;;;;;;;5107668;28;20046;-56
2021/08/20 04:04:36;;;;;;;2.53;1.10;;;;;;;;;;5104101;28;20039;-57
2021/08/20 04:07:03;;;;;;;6.37;1.37;;;;;;;;;;5087346;28;20028;-56
2021/08/20 04:09:30;;;;;;;2.87;1.33;;;;;;;;;;5092007;28;20035;-56
2021/08/20 04:11:57;;;;;;;6.50;1.90;;;;;;;;;;5092012;28;20392;-56
2021/08/20 04:14:24;;;;;;;7.77;1.47;;;;;;;;;;5092065;28;20043;-56
2021/08/20 04:16:50;;;;;;;6.67;2.07;;;;;;;;;;5093235;28;20342;-56
2021/08/20 04:19:17;;;;;;;4.57;2.20;;;;;;;;;;5091176;28;20108;-56
2021/08/20 04:21:44;;;;;;;3.17;1.70;;;;;;;;;;5087076;28;20058;-56
2021/08/20 04:24:14;;;;;;;2.30;1.27;;;;;;;;;;5086624;28;20028;-56
2021/08/20 04:26:41;;;;;;;4.63;1.33;;;;;;;;;;5086823;28;20035;-57
2021/08/20 04:29:08;;;;;;;4.80;1.93;;;;;;;;;;5092978;28;20019;-56
2021/08/20 04:31:35;;;;;;;3.63;1.67;;;;;;;;;;5112230;28;20478;-56
2021/08/20 04:34:02;;;;;;;3.90;1.50;;;;;;;;;;5112096;28;20152;-57
2021/08/20 04:36:29;;;;;;;3.13;1.43;;;;;;;;;;5112994;28;20023;-56
2021/08/20 04:38:55;;;;;;;3.70;1.63;;;;;;;;;;5111972;28;20110;-56
2021/08/20 04:41:23;;;;;;;2.90;1.50;;;;;;;;;;5095459;28;20513;-56
2021/08/20 04:43:50;;;;;;;2.17;1.20;;;;;;;;;;5095281;28;20050;-56
2021/08/20 04:46:18;;;;;;;4.53;1.50;;;;;;;;;;5110805;28;20031;-56
2021/08/20 04:48:44;;;;;;;3.57;1.50;;;;;;;;;;5111095;28;20402;-56
2021/08/20 04:51:11;;;;;;;2.80;1.43;;;;;;;;;;5110797;28;20027;-56
2021/08/20 04:53:39;;;;;;;3.53;1.27;;;;;;;;;;5113611;28;20780;-56
2021/08/20 04:56:06;;;;;;;4.23;1.47;;;;;;;;;;5115343;28;20023;-56
2021/08/20 04:58:35;;;;;;;3.30;1.40;;;;;;;;;;5115692;28;20039;-56
2021/08/20 05:01:01;;;;;;;2.37;1.17;;;;;;;;;;5115642;28;20120;-56
2021/08/20 05:03:28;;;;;;;2.63;1.10;;;;;;;;;;5115458;28;20027;-56
2021/08/20 05:05:55;;;;;;;2.87;1.50;;;;;;;;;;5103466;28;20095;-56
2021/08/20 05:08:22;;;;;;;2.87;1.30;;;;;;;;;;5090668;28;20525;-56
2021/08/20 05:10:48;;;;;;;3.43;1.50;;;;;;;;;;5090190;28;20074;-56
2021/08/20 05:13:15;;;;;;;5.33;1.70;;;;;;;;;;5089344;28;20119;-57
2021/08/20 05:15:42;;;;;;;5.23;1.53;;;;;;;;;;5094107;28;20020;-57
2021/08/20 05:18:09;;;;;;;7.10;1.80;;;;;;;;;;5096006;28;20058;-56
2021/08/20 05:20:36;;;;;;;3.20;2.13;;;;;;;;;;5094572;28;20042;-57
2021/08/20 05:23:03;;;;;;;6.37;1.53;;;;;;;;;;5095115;28;20020;-56
2021/08/20 05:25:33;;;;;;;5.37;2.40;;;;;;;;;;5094999;28;20107;-56
2021/08/20 05:28:01;;;;;;;8.03;1.63;;;;;;;;;;5090062;28;20395;-57
2021/08/20 05:30:28;;;;;;;2.17;1.40;;;;;;;;;;5102214;28;20521;-57
2021/08/20 05:32:55;;;;;;;4.83;1.77;;;;;;;;;;5110054;28;20046;-57
2021/08/20 05:35:22;;;;;;;1.73;1.10;;;;;;;;;;5109999;28;20391;-56
2021/08/20 05:37:49;;;;;;;2.30;1.50;;;;;;;;;;5113251;28;20055;-56
2021/08/20 05:40:16;;;;;;;5.20;1.60;;;;;;;;;;5115009;28;20039;-57
2021/08/20 05:42:43;;;;;;;4.53;1.40;;;;;;;;;;5099718;28;20065;-56
2021/08/20 05:45:10;;;;;;;4.03;1.90;;;;;;;;;;5094471;28;20169;-57
2021/08/20 05:47:37;;;;;;;3.83;1.60;;;;;;;;;;5094024;28;20098;-56
2021/08/20 05:50:04;;;;;;;2.57;1.30;;;;;;;;;;5090524;28;20062;-57
2021/08/20 05:52:31;;;;;;;3.13;1.30;;;;;;;;;;5089069;28;20285;-57
2021/08/20 05:54:59;;;;;;;3.43;1.73;;;;;;;;;;5107314;28;20118;-56
2021/08/20 05:57:26;;;;;;;4.50;1.63;;;;;;;;;;5109580;28;20019;-57
2021/08/20 05:59:53;;;;;;;3.43;1.90;;;;;;;;;;5112439;28;20355;-56
2021/08/20 06:02:19;;;;;;;3.20;1.70;;;;;;;;;;5114048;28;20486;-56
2021/08/20 06:04:46;;;;;;;3.90;1.57;;;;;;;;;;5114308;28;20478;-56
2021/08/20 06:07:13;;;;;;;3.07;1.40;;;;;;;;;;5112796;28;20102;-56
2021/08/20 06:09:40;;;;;;;6.70;1.43;;;;;;;;;;5114596;28;20020;-56
2021/08/20 06:12:07;;;;;;;2.43;1.23;;;;;;;;;;5110727;28;20355;-56
2021/08/20 06:14:34;;;;;;;2.50;1.47;;;;;;;;;;5109192;28;20026;-57
2021/08/20 06:17:01;;;;;;;4.50;1.50;;;;;;;;;;5097398;28;20101;-56
2021/08/20 06:19:28;;;;;;;4.80;1.70;;;;;;;;;;5088385;28;20085;-56
2021/08/20 06:21:54;;;;;;;4.43;1.70;;;;;;;;;;5091102;28;20035;-56
2021/08/20 06:24:21;;;;;;;3.67;1.50;;;;;;;;;;5093753;28;20024;-56
2021/08/20 06:26:49;;;;;;;3.57;1.30;;;;;;;;;;5102833;28;20030;-57
2021/08/20 06:29:19;;;;;;;3.47;1.40;;;;;;;;;;5113138;28;20067;-57
2021/08/20 06:31:46;;;;;;;3.40;1.53;;;;;;;;;;5113817;28;20027;-56
2021/08/20 06:34:12;;;;;;;4.03;1.50;;;;;;;;;;5111233;28;20435;-57
2021/08/20 06:36:39;;;;;;;3.07;1.40;;;;;;;;;;5108683;28;20466;-57
2021/08/20 06:39:06;;;;;;;3.03;1.87;;;;;;;;;;5094366;28;20119;-56
2021/08/20 06:41:33;;;;;;;3.13;1.40;;;;;;;;;;5088314;28;20035;-56
2021/08/20 06:43:59;;;;;;;3.77;1.40;;;;;;;;;;5090295;28;20020;-56
2021/08/20 06:46:26;;;;;;;3.10;1.60;;;;;;;;;;5093229;28;20035;-56
2021/08/20 06:48:53;;;;;;;3.93;1.60;;;;;;;;;;5093380;28;20032;-56
2021/08/20 06:51:20;;;;;;;4.27;1.40;;;;;;;;;;5106109;28;20023;-56
2021/08/20 06:53:46;;;;;;;4.00;1.80;;;;;;;;;;5106725;28;20024;-56
2021/08/20 06:56:13;;;;;;;5.00;1.60;;;;;;;;;;5097050;28;20024;-56
2021/08/20 06:58:40;;;;;;;2.43;1.50;;;;;;;;;;5087609;28;20036;-56
2021/08/20 07:01:07;;;;;;;3.63;1.80;;;;;;;;;;5087648;28;20020;-56
2021/08/20 07:03:34;;;;;;;4.13;1.97;;;;;;;;;;5087736;28;20122;-56
2021/08/20 07:06:01;;;;;;;1.77;1.17;;;;;;;;;;5091976;28;20425;-56
2021/08/20 07:08:27;;;;;;;2.10;1.40;;;;;;;;;;5109277;28;20374;-56
2021/08/20 07:10:54;;;;;;;3.27;1.40;;;;;;;;;;5092783;28;20535;-56
2021/08/20 07:13:21;;;;;;;3.20;1.60;;;;;;;;;;5092717;28;20066;-56
2021/08/20 07:15:48;;;;;;;1.83;1.17;;;;;;;;;;5093032;28;20089;-56
2021/08/20 07:18:15;;;;;;;1.67;1.17;;;;;;;;;;5091662;28;20110;-56
2021/08/20 07:20:42;;;;;;;3.07;1.40;;;;;;;;;;5107374;28;20039;-56
2021/08/20 07:23:09;;;;;;;4.20;1.10;;;;;;;;;;5107546;28;20099;-56
2021/08/20 07:25:36;;;;;;;3.00;1.10;;;;;;;;;;5107584;28;20019;-57
2021/08/20 07:28:03;;;;;;;3.63;1.30;;;;;;;;;;5108587;28;20051;-56
2021/08/20 07:30:30;;;;;;;1.67;0.87;;;;;;;;;;5111110;28;20038;-56
2021/08/20 07:32:56;;;;;;;2.10;0.80;;;;;;;;;;5092611;28;20027;-56
2021/08/20 07:35:23;;;;;;;3.13;1.10;;;;;;;;;;5092595;28;20031;-56
2021/08/20 07:37:50;;;;;;;1.27;0.90;;;;;;;;;;5092271;28;20035;-56
2021/08/20 07:40:17;;;;;;;1.20;0.90;;;;;;;;;;5091572;28;20073;-56
2021/08/20 07:42:43;;;;;;;1.80;0.83;;;;;;;;;;5088444;28;20020;-56
2021/08/20 07:45:10;;;;;;;2.33;1.10;;;;;;;;;;5107679;28;20020;-56
2021/08/20 07:47:47;;;;;;;2.20;1.10;;;;;;;;;;5107555;28;20028;-56
2021/08/20 07:50:14;;;;;;;5.77;1.27;;;;;;;;;;5108427;28;20030;-57
2021/08/20 07:52:41;;;;;;;1.13;0.70;;;;;;;;;;5112650;28;20584;-56
2021/08/20 07:55:08;;;;;;;1.73;0.80;;;;;;;;;;5104768;28;20020;-56
2021/08/20 07:58:04;;;;;;;6.30;2.50;;;;;;;;;;5091863;28;20024;-56
2021/08/20 08:00:30;;;;;;;;;;;;;;;;;;5075677;28;20448;-56
2021/08/20 08:02:57;;;;;;;1.63;0.80;;;;;;;;;;5090497;28;20262;-56
2021/08/20 08:05:24;;;;;;;2.50;1.17;;;;;;;;;;5086797;28;20391;-56
2021/08/20 08:07:52;;;;;;;3.43;1.10;;;;;;;;;;5099454;28;20038;-56
2021/08/20 08:10:19;;;;;;;5.00;0.93;;;;;;;;;;5107777;28;20486;-56
2021/08/20 08:12:45;;;;;;;0.80;0.53;;;;;;;;;;5112189;28;20492;-56
2021/08/20 08:15:12;;;;;;;4.27;1.00;;;;;;;;;;5100712;28;20031;-56
2021/08/20 08:17:40;;;;;;;2.90;0.97;;;;;;;;;;5096191;28;20024;-56
2021/08/20 08:20:08;;;;;;;7.13;1.47;;;;;;;;;;5096075;28;20111;-56
2021/08/20 08:22:34;;;;;;;3.40;1.10;;;;;;;;;;5114732;28;20027;-56
2021/08/20 08:25:01;;;;;;;2.60;0.97;;;;;;;;;;5115039;28;20027;-56
2021/08/20 08:27:28;;;;;;;0.90;0.63;;;;;;;;;;5111004;28;20118;-56
2021/08/20 08:29:55;;;;;;;2.03;0.93;;;;;;;;;;5111196;28;20023;-56
2021/08/20 08:32:22;;;;;;;1.97;0.90;;;;;;;;;;5091971;28;20056;-57
2021/08/20 08:34:48;;;;;;;2.93;1.03;;;;;;;;;;5090855;28;20081;-56
2021/08/20 08:37:15;;;;;;;1.77;0.93;;;;;;;;;;5095802;28;20021;-56
2021/08/20 08:39:42;;;;;;;7.00;0.93;;;;;;;;;;5095855;28;20036;-56
2021/08/20 08:42:08;;;;;;;1.37;0.80;;;;;;;;;;5095561;28;20095;-56
2021/08/20 08:44:36;;;;;;;0.77;0.70;;;;;;;;;;5114778;28;20027;-56
2021/08/20 08:47:05;;;;;;;1.93;0.90;;;;;;;;;;5100560;28;20084;-56
2021/08/20 08:49:33;;;;;;;2.13;1.00;;;;;;;;;;5090323;28;20401;-56
2021/08/20 08:52:00;;;;;;;1.53;0.83;;;;;;;;;;5090560;28;20030;-56
2021/08/20 08:54:26;;;;;;;2.00;1.07;;;;;;;;;;5093602;28;20034;-56
2021/08/20 08:56:53;;;;;;;1.93;1.00;;;;;;;;;;5109959;28;20031;-56
2021/08/20 08:59:20;;;;;;;3.00;1.57;;;;;;;;;;5115646;28;20024;-56
2021/08/20 09:01:49;;;;;;;2.27;0.87;;;;;;;;;;5115625;28;20024;-56
2021/08/20 09:04:21;;;;;;;3.77;1.00;;;;;;;;;;5115625;28;20027;-56
2021/08/20 09:06:58;;;;;;;3.87;1.10;;;;;;;;;;5111231;28;20028;-56
2021/08/20 09:09:26;;;;;;;1.57;0.90;;;;;;;;;;5094316;28;20016;-56
2021/08/20 09:12:00;;;;;;;2.47;0.97;;;;;;;;;;5090092;28;20107;-56
2021/08/20 09:14:31;;;;;;;2.58;0.85;;;;;;;;;;5090052;28;20032;-56
2021/08/20 09:16:58;;;;;;;9.87;1.43;;;;;;;;;;5089889;28;20039;-56
2021/08/20 09:19:25;;;;;;;5.20;1.27;;;;;;;;;;5096743;28;20038;-56
2021/08/20 09:21:56;;;;;;;4.37;1.87;;;;;;;;;;5114501;28;20065;-56
2021/08/20 09:24:43;;;;;;;2.07;1.30;;;;;;;;;;5115064;28;20032;-56
2021/08/20 09:27:21;;;;;;;2.27;1.20;;;;;;;;;;5115180;28;20042;-56
2021/08/20 09:30:11;;;;;;;1.90;1.30;;;;;;;;;;5115117;28;20028;-56
2021/08/20 09:32:53;;;;;;;2.90;1.33;;;;;;;;;;5087455;28;20461;-56
2021/08/20 09:35:20;;;;;;;5.43;1.30;;;;;;;;;;5089525;28;20375;-56
2021/08/20 09:37:47;;;;;;;1.47;1.00;;;;;;;;;;5108661;28;20042;-56
2021/08/20 09:40:16;;;;;;;3.00;1.47;;;;;;;;;;5109813;28;20436;-56
2021/08/20 09:42:43;;;;;;;2.97;1.00;;;;;;;;;;5112023;28;20501;-56
2021/08/20 09:45:12;;;;;;;2.93;1.10;;;;;;;;;;5114695;28;20027;-56
2021/08/20 09:47:59;;;;;;;3.47;1.43;;;;;;;;;;5096991;28;20039;-56
2021/08/20 09:50:42;;;;;;;2.73;1.10;;;;;;;;;;5093834;28;20047;-56
2021/08/20 09:53:14;;;;;;;7.33;1.17;;;;;;;;;;5094274;28;20020;-55
2021/08/20 09:55:41;;;;;;;5.27;1.97;;;;;;;;;;5090375;28;20097;-56
2021/08/20 09:58:11;;;;;;;4.00;1.90;;;;;;;;;;5095161;28;20042;-56
2021/08/20 10:00:38;;;;;;;2.17;1.27;;;;;;;;;;5109286;28;20047;-56
2021/08/20 10:03:07;;;;;;;1.67;1.00;;;;;;;;;;5109392;28;20024;-56
2021/08/20 10:05:34;;;;;;;4.57;1.90;;;;;;;;;;5112798;28;20138;-55
2021/08/20 10:08:03;;;;;;;4.60;2.10;;;;;;;;;;5114530;28;20019;-56
2021/08/20 10:10:31;;;;;;;2.50;1.57;;;;;;;;;;5103718;28;20151;-55
2021/08/20 10:12:58;;;;;;;2.57;1.40;;;;;;;;;;5093969;28;20016;-56
2021/08/20 10:15:25;;;;;;;3.87;1.40;;;;;;;;;;5094100;28;20082;-55
2021/08/20 10:17:53;;;;;;;2.80;1.47;;;;;;;;;;5089793;28;20097;-55
2021/08/20 10:20:20;;;;;;;3.40;1.10;;;;;;;;;;5088500;28;20016;-56
2021/08/20 10:22:47;;;;;;;2.73;1.23;;;;;;;;;;5098670;28;20024;-56
2021/08/20 10:25:14;;;;;;;2.47;1.07;;;;;;;;;;5108813;28;20080;-56
2021/08/20 10:27:42;;;;;;;1.80;1.20;;;;;;;;;;5111543;28;20248;-56
2021/08/20 10:30:09;;;;;;;2.57;1.10;;;;;;;;;;5114063;28;20019;-56
2021/08/20 10:32:35;;;;;;;3.30;1.03;;;;;;;;;;5113961;28;20031;-56
2021/08/20 10:35:02;;;;;;;1.93;1.40;;;;;;;;;;5100659;28;20405;-56
2021/08/20 10:37:31;;;;;;;3.73;1.30;;;;;;;;;;5093709;28;20280;-56
2021/08/20 10:39:59;;;;;;;3.80;1.57;;;;;;;;;;5090378;28;20374;-55
2021/08/20 10:42:35;;;;;;;2.67;1.50;;;;;;;;;;5088217;28;20031;-56
2021/08/20 10:45:06;;;;;;;3.93;1.57;;;;;;;;;;5087892;28;20645;-56
2021/08/20 10:47:33;;;;;;;3.83;1.63;;;;;;;;;;5106336;28;20274;-56
2021/08/20 10:50:08;;;;;;;3.87;1.60;;;;;;;;;;5111244;28;20795;-56
2021/08/20 10:52:36;;;;;;;2.67;1.38;;;;;;;;;;5113599;28;20292;-56
2021/08/20 10:55:03;;;;;;;3.87;1.50;;;;;;;;;;5113660;28;20490;-56
2021/08/20 10:57:38;;;;;;;2.97;1.53;;;;;;;;;;5113115;28;20595;-56
2021/08/20 11:00:05;;;;;;;5.97;1.90;;;;;;;;;;5077670;28;20767;-56
2021/08/20 11:02:32;;;;;;;4.30;1.97;;;;;;;;;;5089269;28;20032;-55
2021/08/20 11:05:03;;;;;;;5.70;1.60;;;;;;;;;;5087937;28;20269;-56
2021/08/20 11:07:42;;;;;;;3.40;1.67;;;;;;;;;;5087624;28;20035;-55
2021/08/20 11:10:09;;;;;;;3.97;1.63;;;;;;;;;;5091646;28;20252;-56
2021/08/20 11:12:39;;;;;;;3.63;1.80;;;;;;;;;;5111437;28;20317;-55
2021/08/20 11:15:24;;;;;;;2.97;1.50;;;;;;;;;;5113136;28;20254;-55
2021/08/20 11:17:52;;;;;;;3.10;1.47;;;;;;;;;;5112936;28;20755;-55
2021/08/20 11:20:19;;;;;;;4.17;1.60;;;;;;;;;;5112960;28;20256;-55
2021/08/20 11:22:46;;;;;;;3.13;1.60;;;;;;;;;;5100955;28;20322;-56
2021/08/20 11:25:15;;;;;;;3.10;1.57;;;;;;;;;;5088031;28;20356;-57
2021/08/20 11:28:02;;;;;;;4.57;1.70;;;;;;;;;;5087570;28;20259;-56
2021/08/20 11:30:29;;;;;;;4.23;1.50;;;;;;;;;;5087352;28;20349;-56
2021/08/20 11:33:13;;;;;;;3.63;1.70;;;;;;;;;;5087325;28;20279;-55
2021/08/20 11:35:40;;;;;;;4.93;1.63;;;;;;;;;;5112469;28;20272;-56
2021/08/20 11:38:08;;;;;;;4.43;1.83;;;;;;;;;;5112796;28;20261;-55
2021/08/20 11:40:46;;;;;;;5.60;1.97;;;;;;;;;;5104420;28;20308;-55
2021/08/20 11:43:13;;;;;;;6.33;2.60;;;;;;;;;;5112844;28;20256;-55
2021/08/20 11:45:40;;;;;;;6.77;2.80;;;;;;;;;;5111902;28;20256;-56
2021/08/20 11:48:07;;;;;;;5.73;2.60;;;;;;;;;;5107479;28;20264;-55
2021/08/20 11:50:34;;;;;;;8.67;2.70;;;;;;;;;;5102514;28;20345;-56
2021/08/20 11:53:01;;;;;;;7.43;3.70;;;;;;;;;;5086935;28;20687;-56
2021/08/20 11:55:28;;;;;;;6.20;4.10;;;;;;;;;;5099456;28;20272;-55
2021/08/20 11:57:55;;;;;;;6.50;3.80;;;;;;;;;;5112379;28;20256;-55
2021/08/20 12:00:22;;;;;;;12.07;4.43;;;;;;;;;;5112609;28;20347;-55
2021/08/20 12:02:49;;;;;;;7.53;4.97;;;;;;;;;;5112168;28;20256;-55
2021/08/20 12:05:15;;;;;;;11.67;4.40;;;;;;;;;;5102493;28;20326;-56
2021/08/20 12:07:42;;;;;;;8.20;4.70;;;;;;;;;;5094356;28;20358;-55
2021/08/20 12:10:10;;;;;;;6.63;3.20;;;;;;;;;;5086954;28;20268;-55
2021/08/20 12:12:45;;;;;;;8.30;4.37;;;;;;;;;;5087190;28;20861;-56
2021/08/20 12:15:13;;;;;;;11.00;3.67;;;;;;;;;;5087036;28;20257;-56
2021/08/20 12:17:40;;;;;;;7.37;3.30;;;;;;;;;;5097737;28;20425;-56
2021/08/20 12:20:19;;;;;;;5.53;3.10;;;;;;;;;;5111963;28;20366;-55
2021/08/20 12:22:50;;;;;;;5.27;3.17;;;;;;;;;;5112379;28;20660;-55
2021/08/20 12:25:17;;;;;;;6.03;3.23;;;;;;;;;;5100037;28;20253;-55
2021/08/20 12:27:45;;;;;;;7.23;3.13;;;;;;;;;;5091755;28;20291;-55
2021/08/20 12:30:14;;;;;;;5.70;3.33;;;;;;;;;;5091543;28;20610;-55
2021/08/20 12:32:42;;;;;;;8.90;4.17;;;;;;;;;;5086635;28;20271;-56
2021/08/20 12:35:20;;;;;;;11.20;5.17;;;;;;;;;;5096576;28;20263;-55
2021/08/20 12:38:19;;;;;;;7.30;3.77;;;;;;;;;;5107427;28;20264;-56
2021/08/20 12:40:56;;;;;;;7.57;3.57;;;;;;;;;;5063230;28;20758;-55
2021/08/20 12:43:26;;;;;;;9.47;3.40;;;;;;;;;;5112188;28;20339;-55
2021/08/20 12:46:02;;;;;;;12.47;4.70;;;;;;;;;;5112197;28;20313;-55
2021/08/20 12:48:29;;;;;;;6.80;3.80;;;;;;;;;;5093635;28;20623;-55
2021/08/20 12:51:00;;;;;;;15.00;3.83;;;;;;;;;;5091810;28;20268;-55
2021/08/20 12:53:30;;;;;;;4.80;2.90;;;;;;;;;;5089577;28;20674;-55
2021/08/20 12:56:00;;;;;;;4.57;2.73;;;;;;;;;;5086723;28;20263;-55
2021/08/20 12:58:30;;;;;;;5.40;2.87;;;;;;;;;;5088612;28;20809;-55
2021/08/20 13:01:02;;;;;;;6.40;2.70;;;;;;;;;;5090942;28;20292;-56
2021/08/20 13:03:29;;;;;;;9.73;4.17;;;;;;;;;;5092179;28;20272;-55
2021/08/20 13:05:57;;;;;;;7.03;3.63;;;;;;;;;;5108227;28;20264;-55
2021/08/20 13:08:25;;;;;;;8.80;3.67;;;;;;;;;;5115094;28;20292;-55
2021/08/20 13:10:53;;;;;;;9.03;4.40;;;;;;;;;;5115625;28;20252;-55
2021/08/20 13:13:20;;;;;;;10.90;4.07;;;;;;;;;;5116003;28;20281;-55
2021/08/20 13:15:47;;;;;;;12.77;3.57;;;;;;;;;;5101355;28;20284;-55
2021/08/20 13:18:17;;;;;;;9.10;3.63;;;;;;;;;;5089534;28;20309;-56
2021/08/20 13:20:48;;;;;;;8.33;4.43;;;;;;;;;;5089850;28;20761;-56
2021/08/20 13:23:15;;;;;;;9.60;4.50;;;;;;;;;;5089684;28;20349;-56
2021/08/20 13:25:42;;;;;;;11.83;5.30;;;;;;;;;;5091616;28;20490;-56
2021/08/20 13:28:09;;;;;;;7.73;4.53;;;;;;;;;;5108566;28;20470;-55
2021/08/20 13:30:37;;;;;;;11.30;6.23;;;;;;;;;;5115191;28;20024;-56
2021/08/20 13:33:04;;;;;;;14.20;7.83;;;;;;;;;;5115268;28;20115;-55
2021/08/20 13:35:31;;;;;;;12.53;7.07;;;;;;;;;;5115100;28;20024;-55
2021/08/20 13:37:58;;;;;;;14.10;7.43;;;;;;;;;;5112880;28;20047;-56
2021/08/20 13:40:27;;;;;;;11.53;6.57;;;;;;;;;;5092098;28;20051;-55
2021/08/20 13:42:54;;;;;;;21.33;7.73;;;;;;;;;;5089455;28;20032;-56
2021/08/20 13:45:20;;;;;;;10.33;5.87;;;;;;;;;;5089221;28;20055;-56
2021/08/20 13:47:47;;;;;;;10.23;6.00;;;;;;;;;;5090761;28;20096;-55
2021/08/20 13:50:14;;;;;;;12.47;6.47;;;;;;;;;;5094930;28;20352;-56
2021/08/20 13:52:41;;;;;;;11.83;6.77;;;;;;;;;;5114785;28;20113;-55
2021/08/20 13:55:08;;;;;;;8.93;5.63;;;;;;;;;;5114831;28;20421;-55
2021/08/20 13:57:35;;;;;;;11.80;5.80;;;;;;;;;;5114828;28;20373;-55
2021/08/20 14:00:03;;;;;;;10.23;6.07;;;;;;;;;;5112843;28;20027;-56
2021/08/20 14:02:30;;;;;;;12.73;6.23;;;;;;;;;;5106756;28;20027;-55
2021/08/20 14:04:57;;;;;;;10.63;5.67;;;;;;;;;;5088952;28;20408;-56
2021/08/20 14:07:23;;;;;;;7.17;5.30;;;;;;;;;;5089105;28;20020;-56
2021/08/20 14:09:50;;;;;;;9.17;5.00;;;;;;;;;;5089260;28;20054;-56
2021/08/20 14:12:18;;;;;;;7.33;4.23;;;;;;;;;;5094235;28;20124;-56
2021/08/20 14:14:44;;;;;;;12.10;5.17;;;;;;;;;;5099893;28;20054;-55
2021/08/20 14:17:11;;;;;;;12.60;4.90;;;;;;;;;;5113442;28;20517;-56
2021/08/20 14:19:38;;;;;;;13.83;4.63;;;;;;;;;;5114310;28;20035;-55
2021/08/20 14:22:05;;;;;;;8.17;4.43;;;;;;;;;;5113330;28;20027;-56
2021/08/20 14:24:32;;;;;;;7.03;3.53;;;;;;;;;;5109003;28;20725;-55
2021/08/20 14:26:58;;;;;;;5.30;3.20;;;;;;;;;;5101914;28;20024;-56
2021/08/20 14:29:27;;;;;;;5.77;3.20;;;;;;;;;;5088587;28;20434;-57
2021/08/20 14:31:54;;;;;;;6.07;3.10;;;;;;;;;;5088608;28;20032;-56
2021/08/20 14:34:21;;;;;;;5.23;2.93;;;;;;;;;;5093255;28;20432;-56
2021/08/20 14:36:48;;;;;;;4.57;2.87;;;;;;;;;;5109966;28;20875;-56
2021/08/20 14:39:14;;;;;;;6.00;3.10;;;;;;;;;;5113961;28;20062;-56
2021/08/20 14:41:41;;;;;;;9.83;3.00;;;;;;;;;;5113994;28;20020;-56
2021/08/20 14:44:10;;;;;;;6.57;3.70;;;;;;;;;;5113468;28;20474;-56
2021/08/20 14:46:38;;;;;;;6.77;3.90;;;;;;;;;;5093472;28;20028;-56
2021/08/20 14:49:05;;;;;;;7.93;3.97;;;;;;;;;;5087947;28;20535;-56